Time;durP1;ratioP1;P1;durP2;ratioP2;P2;SDS_P1;SDS_P2;PMS_P1;PMS_P2;Temp;Humidity;BMP_temperature;BMP_pressure;BME280_temperature;BME280_humidity;BME280_pressure;Samples;Min_cycle;Max_cycle;Signal;HPM_P1;HPM_P2
2023/09/16 00:00:48;;;;;;;;;;;;;;;10.65;77.63;102210.98;105948;1270;127527;-78
2023/09/16 00:03:35;;;;;;;;;;;;;;;10.59;77.71;102205.61;105999;1268;62091;-78
2023/09/16 00:06:02;;;;;;;;;;;;;;;10.58;77.90;102205.36;105901;1268;125136;-78
2023/09/16 00:08:28;;;;;;;;;;;;;;;10.55;77.95;102203.65;105974;1268;65020;-77
2023/09/16 00:10:55;;;;;;;;;;;;;;;10.52;77.87;102203.67;105922;1267;125765;-77
2023/09/16 00:13:43;;;;;;;;;;;;;;;10.50;77.96;102202.02;106000;1273;62193;-77
2023/09/16 00:16:29;;;;;;;;;;;;;;;10.51;78.08;102202.77;105511;1268;62197;-77
2023/09/16 00:18:56;;;;;;;;;;;;;;;10.50;78.00;102200.30;105489;1268;126152;-78
2023/09/16 00:21:22;;;;;;;;;;;;;;;10.51;78.10;102199.96;105096;1273;65551;-78
2023/09/16 00:23:49;;;;;;;;;;;;;;;10.50;78.11;102196.06;105025;1269;125157;-77
2023/09/16 00:26:15;;;;;;;;;;;;;;;10.47;78.11;102202.20;105134;1268;61520;-77
2023/09/16 00:28:42;;;;;;;;;;;;;;;10.45;78.08;102200.52;104941;1268;125809;-77
2023/09/16 00:31:11;;;;;;;;;;;;;;;10.41;78.03;102201.73;105025;1267;74211;-78
2023/09/16 00:33:37;;;;;;;;;;;;;;;10.34;78.16;102202.26;105089;1268;65236;-78
2023/09/16 00:36:04;;;;;;;;;;;;;;;10.30;78.10;102201.17;104989;1275;125394;-77
2023/09/16 00:38:31;;;;;;;;;;;;;;;10.25;78.14;102201.10;105228;1268;62078;-80
2023/09/16 00:40:57;;;;;;;;;;;;;;;10.22;78.15;102204.10;104872;1276;125518;-79
2023/09/16 00:43:24;;;;;;;;;;;;;;;10.20;78.25;102205.41;105092;1270;62212;-80
2023/09/16 00:45:50;;;;;;;;;;;;;;;10.17;78.29;102205.08;105954;1268;62149;-77
2023/09/16 00:48:18;;;;;;;;;;;;;;;10.12;78.33;102206.27;105892;1271;125284;-77
2023/09/16 00:50:45;;;;;;;;;;;;;;;10.11;78.54;102208.64;105832;1270;62106;-79
2023/09/16 00:53:12;;;;;;;;;;;;;;;10.11;78.58;102210.41;105212;1267;125969;-79
2023/09/16 00:55:38;;;;;;;;;;;;;;;10.10;78.48;102211.41;105072;1268;60409;-80
2023/09/16 00:58:05;;;;;;;;;;;;;;;10.08;78.57;102207.48;105223;1267;60437;-77
2023/09/16 01:00:31;;;;;;;;;;;;;;;10.05;78.69;102209.77;104885;1274;125141;-78
2023/09/16 01:02:58;;;;;;;;;;;;;;;10.03;78.68;102212.30;105140;1268;62089;-77
2023/09/16 01:05:25;;;;;;;;;;;;;;;10.02;78.78;102208.88;104955;1268;125587;-79
2023/09/16 01:07:52;;;;;;;;;;;;;;;10.00;78.77;102206.87;105171;1267;75557;-79
2023/09/16 01:10:18;;;;;;;;;;;;;;;9.98;78.81;102204.84;105149;1267;62075;-79
2023/09/16 01:12:45;;;;;;;;;;;;;;;9.95;78.83;102205.39;105048;1268;125055;-79
2023/09/16 01:15:13;;;;;;;;;;;;;;;9.91;78.82;102202.05;105204;1268;62176;-79
2023/09/16 01:17:44;;;;;;;;;;;;;;;9.88;78.93;102201.91;104923;1268;126106;-79
2023/09/16 01:20:13;;;;;;;;;;;;;;;9.86;79.02;102202.31;108074;1268;75554;-79
2023/09/16 01:22:44;;;;;;;;;;;;;;;9.85;79.11;102199.98;105043;1267;126118;-79
2023/09/16 01:25:13;;;;;;;;;;;;;;;9.85;79.31;102203.67;105190;1270;72871;-80
2023/09/16 01:27:39;;;;;;;;;;;;;;;9.86;79.31;102200.55;107620;1267;62120;-80
2023/09/16 01:30:06;;;;;;;;;;;;;;;9.86;79.36;102199.85;104965;1268;125090;-80
2023/09/16 01:32:53;;;;;;;;;;;;;;;9.85;79.33;102200.65;105147;1270;74359;-80
2023/09/16 01:35:21;;;;;;;;;;;;;;;9.82;79.30;102202.62;105061;1270;125127;-77
2023/09/16 01:37:47;;;;;;;;;;;;;;;9.78;79.23;102203.15;105188;1267;73274;-78
2023/09/16 01:40:14;;;;;;;;;;;;;;;9.77;79.17;102204.66;105130;1268;62043;-77
2023/09/16 01:42:41;;;;;;;;;;;;;;;9.76;79.27;102202.46;105067;1268;124988;-77
2023/09/16 01:45:10;;;;;;;;;;;;;;;9.73;79.28;102198.87;105046;1268;75506;-77
2023/09/16 01:47:37;;;;;;;;;;;;;;;9.72;79.46;102191.96;105137;1268;125412;-78
2023/09/16 01:50:04;;;;;;;;;;;;;;;9.74;79.48;102193.11;105129;1268;62108;-77
2023/09/16 01:52:31;;;;;;;;;;;;;;;9.75;79.45;102192.64;105117;1268;62197;-78
2023/09/16 01:54:57;;;;;;;;;;;;;;;9.75;79.47;102193.82;105111;1272;125312;-77
2023/09/16 01:57:24;;;;;;;;;;;;;;;9.74;79.41;102192.92;105232;1267;76004;-76
2023/09/16 01:59:50;;;;;;;;;;;;;;;9.73;79.41;102191.11;105101;1268;125043;-77
2023/09/16 02:02:17;;;;;;;;;;;;;;;9.69;79.29;102191.98;105003;1267;66473;-76
2023/09/16 02:04:44;;;;;;;;;;;;;;;9.66;79.33;102192.87;104977;1272;125227;-78
2023/09/16 02:07:11;;;;;;;;;;;;;;;9.63;79.33;102193.59;108305;1268;59785;-78
2023/09/16 02:09:38;;;;;;;;;;;;;;;9.60;79.35;102193.27;108306;1268;75454;-78
2023/09/16 02:12:05;;;;;;;;;;;;;;;9.60;79.41;102192.19;107964;1267;125133;-77
2023/09/16 02:14:35;;;;;;;;;;;;;;;9.59;79.34;102190.39;108294;1267;70376;-78
2023/09/16 02:17:01;;;;;;;;;;;;;;;9.58;79.43;102190.69;108187;1266;125311;-79
2023/09/16 02:19:29;;;;;;;;;;;;;;;9.59;79.43;102185.63;108290;1268;61404;-79
2023/09/16 02:21:55;;;;;;;;;;;;;;;9.59;79.46;102184.09;105790;1268;75621;-76
2023/09/16 02:24:22;;;;;;;;;;;;;;;9.58;79.39;102183.83;104899;1268;127140;-77
2023/09/16 02:26:48;;;;;;;;;;;;;;;9.57;79.32;102183.09;105056;1267;62220;-77
2023/09/16 02:29:15;;;;;;;;;;;;;;;9.55;79.37;102181.27;105020;1267;125287;-76
2023/09/16 02:31:41;;;;;;;;;;;;;;;9.53;79.45;102183.11;105107;1268;60551;-77
2023/09/16 02:34:07;;;;;;;;;;;;;;;9.54;79.56;102185.42;105060;1270;60506;-77
2023/09/16 02:36:36;;;;;;;;;;;;;;;9.53;79.55;102187.28;104998;1268;125010;-78
2023/09/16 02:39:03;;;;;;;;;;;;;;;9.52;79.62;102185.66;105113;1268;72801;-78
2023/09/16 02:41:30;;;;;;;;;;;;;;;9.50;79.59;102185.39;104981;1273;124949;-78
2023/09/16 02:43:57;;;;;;;;;;;;;;;9.50;79.67;102185.40;105039;1268;62024;-78
2023/09/16 02:46:23;;;;;;;;;;;;;;;9.49;79.69;102184.48;105156;1268;75480;-78
2023/09/16 02:48:49;;;;;;;;;;;;;;;9.47;79.63;102181.92;105069;1268;125661;-77
2023/09/16 02:51:16;;;;;;;;;;;;;;;9.46;79.68;102186.06;105165;1268;62224;-78
2023/09/16 02:53:43;;;;;;;;;;;;;;;9.42;79.70;102187.77;105028;1268;125079;-79
2023/09/16 02:56:09;;;;;;;;;;;;;;;9.43;79.87;102191.67;105236;1272;62089;-79
2023/09/16 02:58:36;;;;;;;;;;;;;;;9.43;79.82;102189.23;105095;1270;75516;-79
2023/09/16 03:01:09;;;;;;;;;;;;;;;9.42;79.79;102193.52;105107;1271;124790;-79
2023/09/16 03:03:37;;;;;;;;;;;;;;;9.40;79.74;102190.80;108315;1267;73722;-79
2023/09/16 03:06:03;;;;;;;;;;;;;;;9.37;79.65;102192.42;107987;1268;125032;-79
2023/09/16 03:08:30;;;;;;;;;;;;;;;9.33;79.66;102190.98;108311;1267;59755;-79
2023/09/16 03:11:01;;;;;;;;;;;;;;;9.31;79.65;102192.27;107844;1267;125489;-80
2023/09/16 03:13:28;;;;;;;;;;;;;;;9.28;79.60;102192.65;105224;1273;66159;-79
2023/09/16 03:16:14;;;;;;;;;;;;;;;9.26;79.50;102194.27;104951;1271;62159;-79
2023/09/16 03:18:45;;;;;;;;;;;;;;;9.23;79.59;102193.59;105098;1272;124963;-79
2023/09/16 03:21:12;;;;;;;;;;;;;;;9.21;79.71;102195.23;105052;1269;62101;-80
2023/09/16 03:23:38;;;;;;;;;;;;;;;9.20;79.76;102193.98;105067;1268;125196;-79
2023/09/16 03:26:06;;;;;;;;;;;;;;;9.18;79.68;102190.35;105126;1272;66289;-78
2023/09/16 03:28:32;;;;;;;;;;;;;;;9.19;79.86;102187.39;105158;1268;70775;-76
2023/09/16 03:30:59;;;;;;;;;;;;;;;9.20;79.88;102187.46;105076;1270;124983;-76
2023/09/16 03:33:25;;;;;;;;;;;;;;;9.19;79.81;102187.95;105080;1273;62072;-75
2023/09/16 03:35:52;;;;;;;;;;;;;;;9.19;79.83;102184.46;105012;1268;125111;-76
2023/09/16 03:38:18;;;;;;;;;;;;;;;9.18;79.73;102182.09;105165;1268;62172;-76
2023/09/16 03:40:45;;;;;;;;;;;;;;;9.13;79.74;102178.01;104959;1273;125182;-77
2023/09/16 03:43:11;;;;;;;;;;;;;;;9.11;79.83;102178.95;105133;1271;62123;-77
2023/09/16 03:45:38;;;;;;;;;;;;;;;9.12;79.84;102176.71;105183;1272;62199;-78
2023/09/16 03:48:05;;;;;;;;;;;;;;;9.12;79.84;102175.16;104802;1271;125223;-78
2023/09/16 03:50:31;;;;;;;;;;;;;;;9.12;79.93;102173.05;105039;1268;66470;-78
2023/09/16 03:52:57;;;;;;;;;;;;;;;9.10;79.80;102172.80;105020;1268;125623;-78
2023/09/16 03:55:24;;;;;;;;;;;;;;;9.08;79.83;102172.46;105273;1268;62247;-78
2023/09/16 03:57:50;;;;;;;;;;;;;;;9.08;79.80;102176.30;105064;1268;61907;-79
2023/09/16 04:00:17;;;;;;;;;;;;;;;9.07;79.86;102176.62;105021;1273;125380;-79
2023/09/16 04:02:43;;;;;;;;;;;;;;;9.06;79.77;102173.42;105211;1268;62141;-78
2023/09/16 04:05:10;;;;;;;;;;;;;;;9.04;79.85;102173.81;104946;1271;125348;-79
2023/09/16 04:07:37;;;;;;;;;;;;;;;9.03;79.86;102176.55;105065;1273;62196;-79
2023/09/16 04:10:04;;;;;;;;;;;;;;;9.02;79.71;102175.83;105182;1273;62292;-79
2023/09/16 04:12:31;;;;;;;;;;;;;;;9.01;79.85;102174.35;104950;1268;124930;-78
2023/09/16 04:14:57;;;;;;;;;;;;;;;8.99;79.85;102169.70;104931;1276;62088;-77
2023/09/16 04:17:23;;;;;;;;;;;;;;;8.98;79.88;102168.74;105002;1270;125090;-78
2023/09/16 04:19:50;;;;;;;;;;;;;;;8.95;79.87;102167.56;105130;1272;62108;-79
2023/09/16 04:22:16;;;;;;;;;;;;;;;8.95;79.95;102168.80;105135;1272;62211;-79
2023/09/16 04:24:43;;;;;;;;;;;;;;;8.95;80.00;102167.79;104986;1268;125476;-80
2023/09/16 04:27:09;;;;;;;;;;;;;;;8.97;80.09;102165.92;105236;1270;62078;-80
2023/09/16 04:29:36;;;;;;;;;;;;;;;9.00;80.28;102165.55;105020;1267;125535;-80
2023/09/16 04:32:02;;;;;;;;;;;;;;;9.05;80.23;102164.95;105041;1273;62187;-80
2023/09/16 04:34:29;;;;;;;;;;;;;;;9.26;80.83;102162.56;105161;1273;62117;-79
2023/09/16 04:36:55;;;;;;;;;;;;;;;9.90;81.83;102159.38;104934;1268;125875;-77
2023/09/16 04:39:25;;;;;;;;;;;;;;;10.65;81.62;102159.17;105140;1268;61899;-80
2023/09/16 04:41:53;;;;;;;;;;;;;;;11.40;81.20;102152.59;105655;1268;126408;-80
2023/09/16 04:44:20;;;;;;;;;;;;;;;12.15;80.60;102154.39;105690;1276;62162;-76
2023/09/16 04:46:46;;;;;;;;;;;;;;;12.81;79.56;102145.02;105016;1272;125509;-78
2023/09/16 04:49:13;;;;;;;;;;;;;;;13.08;78.03;102144.29;104978;1271;62193;-79
2023/09/16 04:51:39;;;;;;;;;;;;;;;13.11;76.38;102145.44;105803;1267;60204;-79
2023/09/16 04:54:07;;;;;;;;;;;;;;;12.92;75.39;102145.44;105715;1268;125363;-79
2023/09/16 04:56:37;;;;;;;;;;;;;;;12.71;75.04;102142.16;105871;1273;62067;-78
2023/09/16 04:59:04;;;;;;;;;;;;;;;12.52;74.90;102141.61;105804;1268;125201;-78
2023/09/16 05:01:30;;;;;;;;;;;;;;;12.38;74.83;102142.65;105886;1267;74666;-81
2023/09/16 05:03:57;;;;;;;;;;;;;;;12.24;74.59;102143.48;105899;1270;65008;-80
2023/09/16 05:06:24;;;;;;;;;;;;;;;12.11;74.62;102150.02;105765;1268;125295;-92
2023/09/16 05:08:53;;;;;;;;;;;;;;;12.03;74.78;102150.73;105784;1268;62046;-80
2023/09/16 05:11:19;;;;;;;;;;;;;;;12.00;74.81;102153.79;105701;1268;124616;-79
2023/09/16 05:13:46;;;;;;;;;;;;;;;11.99;74.92;102156.55;105918;1268;75556;-79
2023/09/16 05:16:12;;;;;;;;;;;;;;;11.97;74.99;102161.58;105880;1267;60175;-78
2023/09/16 05:18:38;;;;;;;;;;;;;;;11.94;74.90;102158.64;105654;1271;124738;-77
2023/09/16 05:21:05;;;;;;;;;;;;;;;11.94;74.99;102161.81;105835;1276;62247;-78
2023/09/16 05:23:33;;;;;;;;;;;;;;;11.93;75.02;102160.36;105945;1270;124616;-78
2023/09/16 05:26:00;;;;;;;;;;;;;;;11.91;74.93;102164.98;105778;1268;74558;-79
2023/09/16 05:28:28;;;;;;;;;;;;;;;11.89;75.19;102165.08;105896;1268;62054;-79
2023/09/16 05:30:56;;;;;;;;;;;;;;;11.90;75.31;102161.97;106006;1273;125099;-79
2023/09/16 05:33:24;;;;;;;;;;;;;;;11.92;75.26;102164.20;105949;1270;62127;-79
2023/09/16 05:35:51;;;;;;;;;;;;;;;11.88;75.33;102163.11;105914;1268;124486;-79
2023/09/16 05:38:18;;;;;;;;;;;;;;;11.88;75.42;102163.10;105951;1268;75443;-79
2023/09/16 05:40:44;;;;;;;;;;;;;;;11.89;75.50;102167.69;105942;1268;125224;-79
2023/09/16 05:43:11;;;;;;;;;;;;;;;11.89;75.72;102168.06;106095;1268;72719;-79
2023/09/16 05:45:37;;;;;;;;;;;;;;;11.91;75.72;102168.15;106018;1268;61709;-79
2023/09/16 05:48:04;;;;;;;;;;;;;;;11.93;75.81;102157.70;105818;1273;125271;-79
2023/09/16 05:50:31;;;;;;;;;;;;;;;11.95;75.97;102162.34;105770;1268;75577;-79
2023/09/16 05:52:57;;;;;;;;;;;;;;;11.98;76.11;102163.38;105797;1268;125314;-79
2023/09/16 05:55:24;;;;;;;;;;;;;;;12.03;76.16;102167.98;105853;1273;71913;-79
2023/09/16 05:57:50;;;;;;;;;;;;;;;12.08;76.26;102164.66;105837;1268;60419;-77
2023/09/16 06:00:17;;;;;;;;;;;;;;;12.12;76.18;102168.33;105697;1267;125848;-78
2023/09/16 06:02:43;;;;;;;;;;;;;;;12.15;76.24;102166.02;105971;1268;75133;-78
2023/09/16 06:05:10;;;;;;;;;;;;;;;12.19;76.24;102167.39;105809;1268;126417;-78
2023/09/16 06:07:39;;;;;;;;;;;;;;;12.24;76.38;102167.24;105872;1268;72795;-78
2023/09/16 06:10:07;;;;;;;;;;;;;;;12.31;76.34;102167.71;105930;1271;62089;-78
2023/09/16 06:12:33;;;;;;;;;;;;;;;12.38;76.46;102166.06;106154;1269;125688;-78
2023/09/16 06:15:00;;;;;;;;;;;;;;;12.48;76.69;102165.59;106070;1271;75410;-80
2023/09/16 06:17:26;;;;;;;;;;;;;;;12.58;76.42;102160.72;105910;1268;125278;-78
2023/09/16 06:19:54;;;;;;;;;;;;;;;12.63;76.26;102162.67;105191;1273;72438;-80
2023/09/16 06:22:21;;;;;;;;;;;;;;;12.68;76.23;102166.17;104996;1274;62098;-79
2023/09/16 06:24:47;;;;;;;;;;;;;;;12.72;76.00;102171.98;105103;1268;125341;-79
2023/09/16 06:27:14;;;;;;;;;;;;;;;12.78;75.91;102171.35;105098;1268;75666;-79
2023/09/16 06:29:41;;;;;;;;;;;;;;;12.83;75.76;102169.41;105689;1273;125990;-83
2023/09/16 06:32:08;;;;;;;;;;;;;;;12.89;75.86;102166.28;105875;1272;71848;-83
2023/09/16 06:34:35;;;;;;;;;;;;;;;12.94;75.69;102165.08;105708;1268;60153;-83
2023/09/16 06:37:02;;;;;;;;;;;;;;;12.99;75.69;102161.74;107276;1270;126031;-82
2023/09/16 06:39:29;;;;;;;;;;;;;;;13.04;75.48;102163.68;105880;1269;75294;-82
2023/09/16 06:41:55;;;;;;;;;;;;;;;13.07;75.39;102161.51;105830;1273;125523;-82
2023/09/16 06:44:22;;;;;;;;;;;;;;;13.12;75.33;102161.69;105822;1268;71418;-82
2023/09/16 06:46:48;;;;;;;;;;;;;;;13.14;75.18;102163.20;105815;1272;125696;-81
2023/09/16 06:49:17;;;;;;;;;;;;;;;13.18;75.16;102161.75;105701;1274;62124;-83
2023/09/16 06:51:43;;;;;;;;;;;;;;;13.24;75.15;102159.33;106002;1271;73917;-81
2023/09/16 06:54:10;;;;;;;;;;;;;;;13.28;74.99;102158.22;105887;1273;124721;-79
2023/09/16 06:56:36;;;;;;;;;;;;;;;13.30;75.00;102155.14;105875;1268;62092;-81
2023/09/16 06:59:03;;;;;;;;;;;;;;;13.35;75.09;102160.46;105926;1272;124646;-83
2023/09/16 07:01:30;;;;;;;;;;;;;;;13.40;74.97;102156.77;105861;1268;62024;-85
2023/09/16 07:03:57;;;;;;;;;;;;;;;13.46;74.94;102160.14;105781;1275;62088;-87
2023/09/16 07:06:24;;;;;;;;;;;;;;;13.52;74.91;102162.45;105747;1268;124587;-87
2023/09/16 07:08:50;;;;;;;;;;;;;;;13.54;74.68;102159.01;105829;1269;72745;-84
2023/09/16 07:11:17;;;;;;;;;;;;;;;13.57;74.70;102158.59;105763;1268;124918;-87
2023/09/16 07:13:44;;;;;;;;;;;;;;;13.62;74.68;102156.64;105934;1270;60784;-87
2023/09/16 07:16:11;;;;;;;;;;;;;;;13.68;74.70;102157.91;106012;1270;75516;-84
2023/09/16 07:18:37;;;;;;;;;;;;;;;13.72;74.56;102155.40;105828;1273;125996;-86
2023/09/16 07:21:04;;;;;;;;;;;;;;;13.77;74.47;102156.63;105968;1270;72416;-83
2023/09/16 07:23:30;;;;;;;;;;;;;;;13.81;74.32;102154.84;105747;1273;125103;-83
2023/09/16 07:25:57;;;;;;;;;;;;;;;13.87;74.27;102154.50;105901;1268;62063;-83
2023/09/16 07:28:24;;;;;;;;;;;;;;;13.94;74.40;102153.00;105942;1270;75531;-82
2023/09/16 07:30:50;;;;;;;;;;;;;;;14.03;74.36;102149.92;105894;1268;126050;-81
2023/09/16 07:33:17;;;;;;;;;;;;;;;14.12;74.43;102148.80;105722;1268;72707;-81
2023/09/16 07:35:48;;;;;;;;;;;;;;;14.18;74.19;102149.17;105881;1267;125623;-83
2023/09/16 07:38:15;;;;;;;;;;;;;;;14.25;74.24;102149.39;105735;1274;62078;-83
2023/09/16 07:40:42;;;;;;;;;;;;;;;14.35;74.30;102149.89;105830;1268;125284;-82
2023/09/16 07:43:10;;;;;;;;;;;;;;;14.44;74.33;102154.08;106036;1268;61969;-81
2023/09/16 07:45:37;;;;;;;;;;;;;;;14.53;74.11;102155.58;105759;1272;204961;-82
2023/09/16 07:48:07;;;;;;;;;;;;;;;14.61;73.95;102156.39;105830;1268;125337;-82
2023/09/16 07:50:33;;;;;;;;;;;;;;;14.69;73.91;102151.86;105877;1268;62108;-83
2023/09/16 07:53:00;;;;;;;;;;;;;;;14.76;73.77;102148.21;105888;1272;126463;-82
2023/09/16 07:55:26;;;;;;;;;;;;;;;14.84;73.70;102147.89;105985;1273;62074;-82
2023/09/16 07:57:53;;;;;;;;;;;;;;;14.89;73.53;102143.65;105838;1272;62149;-82
2023/09/16 08:00:19;;;;;;;;;;;;;;;14.95;73.46;102142.23;105649;1269;124868;-81
2023/09/16 08:02:46;;;;;;;;;;;;;;;15.02;73.37;102140.29;105791;1271;60282;-78
2023/09/16 08:05:12;;;;;;;;;;;;;;;15.09;73.31;102135.36;105765;1273;125464;-78
2023/09/16 08:07:39;;;;;;;;;;;;;;;15.18;73.41;102135.62;105769;1273;62136;-78
2023/09/16 08:10:06;;;;;;;;;;;;;;;15.27;73.24;102137.13;105867;1271;61997;-80
2023/09/16 08:12:32;;;;;;;;;;;;;;;15.32;73.00;102137.44;105750;1273;124912;-78
2023/09/16 08:15:01;;;;;;;;;;;;;;;15.39;72.90;102138.32;105252;1272;62038;-78
2023/09/16 08:17:28;;;;;;;;;;;;;;;15.43;72.74;102133.30;105048;1267;124610;-78
2023/09/16 08:19:54;;;;;;;;;;;;;;;15.45;72.64;102131.23;104994;1273;65156;-78
2023/09/16 08:22:23;;;;;;;;;;;;;;;15.49;72.51;102126.20;105102;1268;72708;-78
2023/09/16 08:24:50;;;;;;;;;;;;;;;15.54;72.60;102128.66;104929;1275;125729;-79
2023/09/16 08:27:17;;;;;;;;;;;;;;;15.64;72.70;102124.33;105025;1274;60248;-79
2023/09/16 08:29:43;;;;;;;;;;;;;;;15.77;72.80;102121.48;105076;1274;125259;-80
2023/09/16 08:32:10;;;;;;;;;;;;;;;15.88;72.41;102123.55;105184;1273;64728;-79
2023/09/16 08:34:36;;;;;;;;;;;;;;;15.96;72.05;102126.57;105150;1273;73610;-81
2023/09/16 08:37:03;;;;;;;;;;;;;;;16.02;71.94;102127.09;105899;1274;62127;-81
2023/09/16 08:39:30;;;;;;;;;;;;;;;16.12;71.80;102126.08;105141;1269;62207;-81
2023/09/16 08:42:02;;;;;;;;;;;;;;;16.22;71.79;102127.02;105799;1270;125664;-81
2023/09/16 08:44:28;;;;;;;;;;;;;;;16.33;71.78;102122.34;105818;1270;65075;-81
2023/09/16 08:46:55;;;;;;;;;;;;;;;16.44;71.49;102122.92;105889;1270;125596;-81
2023/09/16 08:49:22;;;;;;;;;;;;;;;16.55;71.48;102122.30;105943;1272;61905;-79
2023/09/16 08:51:48;;;;;;;;;;;;;;;16.66;71.42;102123.08;105925;1268;60407;-79
2023/09/16 08:54:15;;;;;;;;;;;;;;;16.77;71.23;102118.50;105199;1274;125498;-79
2023/09/16 08:56:42;;;;;;;;;;;;;;;16.86;71.07;102110.41;105194;1271;66258;-76
2023/09/16 08:59:09;;;;;;;;;;;;;;;16.97;70.90;102107.80;105034;1276;124674;-76
2023/09/16 09:01:36;;;;;;;;;;;;;;;17.06;70.59;102105.67;105053;1271;62169;-80
2023/09/16 09:04:03;;;;;;;;;;;;;;;17.12;70.40;102107.39;106015;1270;62180;-77
2023/09/16 09:06:29;;;;;;;;;;;;;;;17.21;70.30;102101.89;105795;1268;125184;-78
2023/09/16 09:08:56;;;;;;;;;;;;;;;17.31;70.31;102096.04;105135;1269;66521;-83
2023/09/16 09:11:23;;;;;;;;;;;;;;;17.39;70.01;102093.88;105684;1270;126462;-79
2023/09/16 09:13:49;;;;;;;;;;;;;;;17.45;69.87;102089.38;105772;1270;62033;-78
2023/09/16 09:16:16;;;;;;;;;;;;;;;17.54;69.73;102084.92;105846;1268;60526;-80
2023/09/16 09:18:43;;;;;;;;;;;;;;;17.63;69.64;102080.29;105860;1272;125660;-77
2023/09/16 09:21:09;;;;;;;;;;;;;;;17.74;69.69;102071.95;105593;1270;60367;-79
2023/09/16 09:23:36;;;;;;;;;;;;;;;17.86;69.65;102070.74;105778;1270;125166;-79
2023/09/16 09:26:02;;;;;;;;;;;;;;;18.00;69.33;102066.89;105832;1269;62180;-79
2023/09/16 09:28:29;;;;;;;;;;;;;;;18.10;68.88;102065.25;106023;1272;60174;-79
2023/09/16 09:30:57;;;;;;;;;;;;;;;18.17;68.79;102062.52;105934;1270;125437;-78
2023/09/16 09:33:24;;;;;;;;;;;;;;;18.27;68.64;102059.28;105900;1270;64662;-77
2023/09/16 09:35:50;;;;;;;;;;;;;;;18.36;68.44;102059.42;105989;1270;125453;-78
2023/09/16 09:38:17;;;;;;;;;;;;;;;18.46;68.19;102052.63;106026;1274;62114;-78
2023/09/16 09:41:04;;;;;;;;;;;;;;;18.55;67.75;102049.70;105796;1274;124757;-79
2023/09/16 09:43:31;;;;;;;;;;;;;;;18.64;67.62;102047.52;105955;1268;75001;-78
2023/09/16 09:45:58;;;;;;;;;;;;;;;18.72;67.52;102045.30;106030;1270;66265;-79
2023/09/16 09:48:24;;;;;;;;;;;;;;;18.81;67.45;102042.58;105894;1273;124684;-79
2023/09/16 09:50:51;;;;;;;;;;;;;;;18.88;66.94;102038.58;105911;1267;62126;-79
2023/09/16 09:53:18;;;;;;;;;;;;;;;18.94;66.84;102035.98;105877;1270;125128;-77
2023/09/16 09:55:47;;;;;;;;;;;;;;;19.01;66.70;102034.46;105211;1270;75453;-78
2023/09/16 09:58:14;;;;;;;;;;;;;;;19.07;66.38;102029.34;106011;1270;66287;-77
2023/09/16 10:00:47;;;;;;;;;;;;;;;19.11;66.15;102022.64;105831;1270;125393;-78
2023/09/16 10:03:14;;;;;;;;;;;;;;;19.18;66.01;102022.17;106103;1273;62133;-81
2023/09/16 10:05:41;;;;;;;;;;;;;;;19.25;65.67;102017.27;105979;1270;124549;-81
2023/09/16 10:08:08;;;;;;;;;;;;;;;19.31;65.63;102016.08;105951;1269;74777;-80
2023/09/16 10:10:34;;;;;;;;;;;;;;;19.38;65.38;102016.14;105983;1271;64878;-81
2023/09/16 10:13:01;;;;;;;;;;;;;;;19.43;64.87;102014.05;105877;1269;125499;-82
2023/09/16 10:15:29;;;;;;;;;;;;;;;19.47;64.83;102007.66;105970;1270;62101;-79
2023/09/16 10:17:56;;;;;;;;;;;;;;;19.52;64.78;102006.10;105745;1269;125149;-79
2023/09/16 10:20:22;;;;;;;;;;;;;;;19.60;64.59;102000.29;105788;1270;75543;-77
2023/09/16 10:22:49;;;;;;;;;;;;;;;19.67;64.34;101995.17;105803;1270;125196;-79
2023/09/16 10:25:18;;;;;;;;;;;;;;;19.75;64.54;101993.31;105911;1270;71457;-80
2023/09/16 10:27:51;;;;;;;;;;;;;;;19.85;64.34;101991.77;105830;1271;62107;-79
2023/09/16 10:30:18;;;;;;;;;;;;;;;19.92;64.03;101984.52;105942;1273;124531;-79
2023/09/16 10:32:44;;;;;;;;;;;;;;;19.97;63.80;101981.87;105727;1268;75024;-79
2023/09/16 10:35:11;;;;;;;;;;;;;;;20.02;63.55;101978.15;105798;1270;124831;-80
2023/09/16 10:37:37;;;;;;;;;;;;;;;20.07;63.32;101978.71;105802;1274;61089;-78
2023/09/16 10:40:04;;;;;;;;;;;;;;;20.11;62.97;101980.16;105814;1270;62200;-81
2023/09/16 10:42:32;;;;;;;;;;;;;;;20.16;62.66;101977.16;105888;1270;124468;-81
2023/09/16 10:44:59;;;;;;;;;;;;;;;20.19;62.31;101979.13;106153;1270;74425;-81
2023/09/16 10:47:26;;;;;;;;;;;;;;;20.22;62.07;101977.01;106268;1274;124532;-81
2023/09/16 10:49:52;;;;;;;;;;;;;;;20.24;61.90;101974.88;106075;1270;71802;-80
2023/09/16 10:52:20;;;;;;;;;;;;;;;20.24;61.67;101970.77;106174;1269;62211;-80
2023/09/16 10:54:56;;;;;;;;;;;;;;;20.27;62.08;101968.83;106025;1274;124564;-82
2023/09/16 10:57:29;;;;;;;;;;;;;;;20.31;61.92;101962.07;106293;1268;75570;-81
2023/09/16 10:59:56;;;;;;;;;;;;;;;20.34;61.52;101953.71;106001;1268;125086;-81
2023/09/16 11:02:32;;;;;;;;;;;;;;;20.35;61.15;101954.77;106254;1270;62788;-80
2023/09/16 11:04:59;;;;;;;;;;;;;;;20.36;61.17;101951.40;106107;1269;125420;-80
2023/09/16 11:07:25;;;;;;;;;;;;;;;20.40;61.13;101948.55;106235;1270;62401;-80
2023/09/16 11:09:53;;;;;;;;;;;;;;;20.43;60.82;101948.04;106099;1270;75450;-80
2023/09/16 11:12:19;;;;;;;;;;;;;;;20.43;60.46;101943.40;105692;1270;124978;-79
2023/09/16 11:14:46;;;;;;;;;;;;;;;20.44;60.64;101943.93;105898;1270;60652;-82
2023/09/16 11:17:15;;;;;;;;;;;;;;;20.47;60.56;101940.02;106045;1272;124821;-80
2023/09/16 11:19:42;;;;;;;;;;;;;;;20.51;60.60;101936.11;105853;1270;60156;-80
2023/09/16 11:22:09;;;;;;;;;;;;;;;20.56;60.50;101929.88;105725;1276;75352;-80
2023/09/16 11:24:35;;;;;;;;;;;;;;;20.60;60.11;101926.70;105820;1268;130758;-80
2023/09/16 11:27:02;;;;;;;;;;;;;;;20.61;59.53;101928.15;105748;1270;72735;-81
2023/09/16 11:29:29;;;;;;;;;;;;;;;20.63;59.42;101926.37;105759;1273;124475;-81
2023/09/16 11:31:55;;;;;;;;;;;;;;;20.64;59.04;101926.20;105948;1270;60195;-80
2023/09/16 11:34:22;;;;;;;;;;;;;;;20.65;59.17;101917.45;106042;1269;75526;-79
2023/09/16 11:36:53;;;;;;;;;;;;;;;20.68;59.11;101917.27;105867;1273;124521;-81
2023/09/16 11:39:21;;;;;;;;;;;;;;;20.70;58.92;101910.51;105830;1271;72660;-81
2023/09/16 11:41:48;;;;;;;;;;;;;;;20.74;58.81;101908.91;105679;1271;126254;-81
2023/09/16 11:44:15;;;;;;;;;;;;;;;20.76;58.54;101904.80;105930;1270;62203;-81
2023/09/16 11:46:41;;;;;;;;;;;;;;;20.77;58.32;101901.77;105579;1273;125269;-80
2023/09/16 11:49:08;;;;;;;;;;;;;;;20.77;58.22;101900.16;105994;1270;66316;-80
2023/09/16 11:51:35;;;;;;;;;;;;;;;20.81;58.16;101897.31;105768;1270;70486;-81
2023/09/16 11:54:02;;;;;;;;;;;;;;;20.84;57.97;101897.14;107963;1270;125807;-80
2023/09/16 11:56:29;;;;;;;;;;;;;;;20.86;57.59;101892.15;108279;1267;59842;-81
2023/09/16 11:58:56;;;;;;;;;;;;;;;20.88;57.55;101886.27;108149;1270;124680;-81
2023/09/16 12:01:28;;;;;;;;;;;;;;;20.90;57.33;101880.73;106844;1270;64044;-80
2023/09/16 12:03:55;;;;;;;;;;;;;;;20.92;57.28;101879.48;105911;1268;72661;-81
2023/09/16 12:06:22;;;;;;;;;;;;;;;20.94;57.11;101873.23;106020;1270;125655;-81
2023/09/16 12:08:48;;;;;;;;;;;;;;;20.97;57.32;101872.88;106037;1268;62104;-79
2023/09/16 12:11:15;;;;;;;;;;;;;;;21.02;57.17;101873.24;105903;1270;124711;-81
2023/09/16 12:13:42;;;;;;;;;;;;;;;21.05;56.67;101870.39;105984;1268;66342;-81
2023/09/16 12:16:11;;;;;;;;;;;;;;;21.06;56.72;101869.66;105969;1269;62180;-82
2023/09/16 12:18:38;;;;;;;;;;;;;;;21.08;56.63;101866.98;105898;1267;126705;-80
2023/09/16 12:21:05;;;;;;;;;;;;;;;21.12;56.66;101865.55;106212;1270;60691;-80
2023/09/16 12:23:32;;;;;;;;;;;;;;;21.18;56.72;101865.19;106037;1270;124819;-80
2023/09/16 12:26:00;;;;;;;;;;;;;;;21.22;56.50;101857.16;106051;1272;65174;-80